sensor_id;sensor_type;location;lat;lon;timestamp;temperature;humidity
24091;DHT22;12272;52.426;17.100;2023-03-01T00:02:58;-3.00;99.90
24091;DHT22;12272;52.426;17.100;2023-03-01T00:08:01;-2.90;99.90
24091;DHT22;12272;52.426;17.100;2023-03-01T00:13:03;-3.00;99.90
24091;DHT22;12272;52.426;17.100;2023-03-01T00:18:08;-3.10;99.90
24091;DHT22;12272;52.426;17.100;2023-03-01T00:23:10;-2.70;99.90
24091;DHT22;12272;52.426;17.100;2023-03-01T00:28:13;-2.70;99.90
24091;DHT22;12272;52.426;17.100;2023-03-01T00:33:16;-2.80;99.90
24091;DHT22;12272;52.426;17.100;2023-03-01T00:38:19;-2.70;99.90
24091;DHT22;12272;52.426;17.100;2023-03-01T00:43:21;-2.80;99.90
24091;DHT22;12272;52.426;17.100;2023-03-01T00:48:24;-2.70;99.90
24091;DHT22;12272;52.426;17.100;2023-03-01T00:53:26;-2.70;99.90
24091;DHT22;12272;52.426;17.100;2023-03-01T00:58:29;-2.90;99.90
24091;DHT22;12272;52.426;17.100;2023-03-01T01:03:32;-3.00;99.90
24091;DHT22;12272;52.426;17.100;2023-03-01T01:08:35;-3.00;99.90
24091;DHT22;12272;52.426;17.100;2023-03-01T01:13:38;-2.80;99.90
24091;DHT22;12272;52.426;17.100;2023-03-01T01:18:42;-2.80;99.90
24091;DHT22;12272;52.426;17.100;2023-03-01T01:23:45;-3.10;99.90
24091;DHT22;12272;52.426;17.100;2023-03-01T01:28:48;-3.30;99.90
24091;DHT22;12272;52.426;17.100;2023-03-01T01:33:52;-3.40;99.90
24091;DHT22;12272;52.426;17.100;2023-03-01T01:38:55;-3.20;99.90
24091;DHT22;12272;52.426;17.100;2023-03-01T01:49:35;-3.40;99.90
24091;DHT22;12272;52.426;17.100;2023-03-01T02:00:02;-2.80;99.90
24091;DHT22;12272;52.426;17.100;2023-03-01T02:10:34;-2.70;99.90
24091;DHT22;12272;52.426;17.100;2023-03-01T02:15:39;-2.70;99.90
24091;DHT22;12272;52.426;17.100;2023-03-01T02:26:25;-3.20;99.90
24091;DHT22;12272;52.426;17.100;2023-03-01T02:31:30;-3.10;99.90
24091;DHT22;12272;52.426;17.100;2023-03-01T02:36:51;-3.30;99.90
24091;DHT22;12272;52.426;17.100;2023-03-01T02:41:57;-3.10;99.90
24091;DHT22;12272;52.426;17.100;2023-03-01T02:47:03;-2.80;99.90
24091;DHT22;12272;52.426;17.100;2023-03-01T02:57:45;-3.10;99.90
24091;DHT22;12272;52.426;17.100;2023-03-01T03:02:54;-2.80;99.90
24091;DHT22;12272;52.426;17.100;2023-03-01T03:08:01;-3.00;99.90
24091;DHT22;12272;52.426;17.100;2023-03-01T03:13:11;-2.90;99.90
24091;DHT22;12272;52.426;17.100;2023-03-01T03:18:16;-3.20;99.90
24091;DHT22;12272;52.426;17.100;2023-03-01T03:23:22;-3.30;99.90
24091;DHT22;12272;52.426;17.100;2023-03-01T03:28:28;-3.20;99.90
24091;DHT22;12272;52.426;17.100;2023-03-01T03:33:31;-3.20;99.90
24091;DHT22;12272;52.426;17.100;2023-03-01T03:38:33;-3.50;99.90
24091;DHT22;12272;52.426;17.100;2023-03-01T03:43:37;-3.50;99.90
24091;DHT22;12272;52.426;17.100;2023-03-01T03:48:43;-3.80;99.90
24091;DHT22;12272;52.426;17.100;2023-03-01T03:53:46;-3.40;99.90
24091;DHT22;12272;52.426;17.100;2023-03-01T03:58:48;-3.30;99.90
24091;DHT22;12272;52.426;17.100;2023-03-01T04:03:51;-3.00;99.90
24091;DHT22;12272;52.426;17.100;2023-03-01T04:08:56;-2.90;99.90
24091;DHT22;12272;52.426;17.100;2023-03-01T04:14:01;-2.90;99.90
24091;DHT22;12272;52.426;17.100;2023-03-01T04:19:03;-2.90;99.90
24091;DHT22;12272;52.426;17.100;2023-03-01T04:24:08;-2.90;99.90
24091;DHT22;12272;52.426;17.100;2023-03-01T04:29:12;-3.10;99.90
24091;DHT22;12272;52.426;17.100;2023-03-01T04:34:14;-3.30;99.90
24091;DHT22;12272;52.426;17.100;2023-03-01T04:39:17;-3.20;99.90
24091;DHT22;12272;52.426;17.100;2023-03-01T04:44:19;-3.20;99.90
24091;DHT22;12272;52.426;17.100;2023-03-01T04:49:22;-3.20;99.90
24091;DHT22;12272;52.426;17.100;2023-03-01T04:54:24;-3.40;99.90
24091;DHT22;12272;52.426;17.100;2023-03-01T04:59:27;-3.00;99.90
24091;DHT22;12272;52.426;17.100;2023-03-01T05:04:30;-2.70;99.90
24091;DHT22;12272;52.426;17.100;2023-03-01T05:09:33;-2.60;99.90
24091;DHT22;12272;52.426;17.100;2023-03-01T05:14:36;-2.60;99.90
24091;DHT22;12272;52.426;17.100;2023-03-01T05:19:38;-2.90;99.90
24091;DHT22;12272;52.426;17.100;2023-03-01T05:24:41;-3.10;99.90
24091;DHT22;12272;52.426;17.100;2023-03-01T05:29:43;-3.10;99.90
24091;DHT22;12272;52.426;17.100;2023-03-01T05:34:48;-3.40;99.90
24091;DHT22;12272;52.426;17.100;2023-03-01T05:39:51;-3.60;99.90
24091;DHT22;12272;52.426;17.100;2023-03-01T05:44:54;-3.80;99.90
24091;DHT22;12272;52.426;17.100;2023-03-01T05:49:57;-3.30;99.90
24091;DHT22;12272;52.426;17.100;2023-03-01T05:54:59;-2.80;99.90
24091;DHT22;12272;52.426;17.100;2023-03-01T06:00:02;-2.40;99.90
24091;DHT22;12272;52.426;17.100;2023-03-01T06:05:13;-2.50;99.90
24091;DHT22;12272;52.426;17.100;2023-03-01T06:10:17;-2.40;99.90
24091;DHT22;12272;52.426;17.100;2023-03-01T06:15:21;-1.90;99.90
24091;DHT22;12272;52.426;17.100;2023-03-01T06:20:26;-2.00;99.90
24091;DHT22;12272;52.426;17.100;2023-03-01T06:25:29;-1.40;99.90
24091;DHT22;12272;52.426;17.100;2023-03-01T06:30:31;-1.50;99.90
24091;DHT22;12272;52.426;17.100;2023-03-01T06:35:34;-1.00;99.90
24091;DHT22;12272;52.426;17.100;2023-03-01T06:40:37;-0.80;99.90
24091;DHT22;12272;52.426;17.100;2023-03-01T06:45:39;-0.80;99.90
24091;DHT22;12272;52.426;17.100;2023-03-01T06:50:42;-0.60;99.90
24091;DHT22;12272;52.426;17.100;2023-03-01T06:55:45;3.10;99.90
24091;DHT22;12272;52.426;17.100;2023-03-01T07:00:47;4.40;98.60
24091;DHT22;12272;52.426;17.100;2023-03-01T07:05:50;2.10;93.60
24091;DHT22;12272;52.426;17.100;2023-03-01T07:10:58;0.50;98.30
24091;DHT22;12272;52.426;17.100;2023-03-01T07:16:01;1.30;99.90
24091;DHT22;12272;52.426;17.100;2023-03-01T07:21:08;3.10;95.90
24091;DHT22;12272;52.426;17.100;2023-03-01T07:26:11;2.20;99.60
24091;DHT22;12272;52.426;17.100;2023-03-01T07:31:13;1.70;99.50
24091;DHT22;12272;52.426;17.100;2023-03-01T07:36:16;1.20;99.90
24091;DHT22;12272;52.426;17.100;2023-03-01T07:41:19;1.10;99.90
24091;DHT22;12272;52.426;17.100;2023-03-01T07:46:21;1.30;99.90
24091;DHT22;12272;52.426;17.100;2023-03-01T07:51:24;0.90;99.90
24091;DHT22;12272;52.426;17.100;2023-03-01T07:56:27;1.10;99.90
24091;DHT22;12272;52.426;17.100;2023-03-01T08:01:29;1.20;99.90
24091;DHT22;12272;52.426;17.100;2023-03-01T08:06:34;1.40;99.90
24091;DHT22;12272;52.426;17.100;2023-03-01T08:11:36;1.50;99.90
24091;DHT22;12272;52.426;17.100;2023-03-01T08:16:39;2.00;99.90
24091;DHT22;12272;52.426;17.100;2023-03-01T08:21:42;2.50;99.90
24091;DHT22;12272;52.426;17.100;2023-03-01T08:26:45;3.90;99.90
24091;DHT22;12272;52.426;17.100;2023-03-01T08:31:48;5.50;98.90
24091;DHT22;12272;52.426;17.100;2023-03-01T08:36:51;6.50;97.10
24091;DHT22;12272;52.426;17.100;2023-03-01T08:41:54;6.30;99.80
24091;DHT22;12272;52.426;17.100;2023-03-01T08:46:56;7.80;95.00
24091;DHT22;12272;52.426;17.100;2023-03-01T08:51:59;8.80;84.60
24091;DHT22;12272;52.426;17.100;2023-03-01T08:57:04;7.50;71.10
24091;DHT22;12272;52.426;17.100;2023-03-01T09:02:16;8.40;83.20
24091;DHT22;12272;52.426;17.100;2023-03-01T09:07:19;9.30;74.90
24091;DHT22;12272;52.426;17.100;2023-03-01T09:12:21;8.30;73.40
24091;DHT22;12272;52.426;17.100;2023-03-01T09:17:24;9.80;86.40
24091;DHT22;12272;52.426;17.100;2023-03-01T09:22:26;9.50;45.00
24091;DHT22;12272;52.426;17.100;2023-03-01T09:27:29;9.60;58.70
24091;DHT22;12272;52.426;17.100;2023-03-01T09:32:32;10.60;64.10
24091;DHT22;12272;52.426;17.100;2023-03-01T09:37:36;9.80;56.80
24091;DHT22;12272;52.426;17.100;2023-03-01T09:42:51;9.80;59.10
24091;DHT22;12272;52.426;17.100;2023-03-01T09:47:55;9.40;51.90
24091;DHT22;12272;52.426;17.100;2023-03-01T09:53:15;9.90;52.90
24091;DHT22;12272;52.426;17.100;2023-03-01T09:58:38;9.60;56.90
24091;DHT22;12272;52.426;17.100;2023-03-01T10:03:57;10.10;55.40
24091;DHT22;12272;52.426;17.100;2023-03-01T10:09:16;9.90;46.80
24091;DHT22;12272;52.426;17.100;2023-03-01T10:19:45;8.70;42.10
24091;DHT22;12272;52.426;17.100;2023-03-01T10:24:48;7.80;43.60
24091;DHT22;12272;52.426;17.100;2023-03-01T10:35:23;9.20;90.30
24091;DHT22;12272;52.426;17.100;2023-03-01T10:40:25;9.50;69.80
24091;DHT22;12272;52.426;17.100;2023-03-01T10:45:38;10.30;45.00
24091;DHT22;12272;52.426;17.100;2023-03-01T10:50:45;10.60;62.50
24091;DHT22;12272;52.426;17.100;2023-03-01T10:55:57;11.00;42.40
24091;DHT22;12272;52.426;17.100;2023-03-01T11:01:03;10.80;48.00
24091;DHT22;12272;52.426;17.100;2023-03-01T11:16:36;10.40;52.80
24091;DHT22;12272;52.426;17.100;2023-03-01T11:21:47;10.00;40.60
24091;DHT22;12272;52.426;17.100;2023-03-01T11:26:54;8.80;55.80
24091;DHT22;12272;52.426;17.100;2023-03-01T11:31:59;9.00;61.70
24091;DHT22;12272;52.426;17.100;2023-03-01T11:37:15;9.60;55.90
24091;DHT22;12272;52.426;17.100;2023-03-01T11:42:25;8.80;56.00
24091;DHT22;12272;52.426;17.100;2023-03-01T11:53:16;6.90;57.50
24091;DHT22;12272;52.426;17.100;2023-03-01T12:14:28;10.10;75.30
24091;DHT22;12272;52.426;17.100;2023-03-01T12:30:44;9.30;58.40
24091;DHT22;12272;52.426;17.100;2023-03-01T12:52:46;8.50;78.40
24091;DHT22;12272;52.426;17.100;2023-03-01T13:03:59;7.50;65.10
24091;DHT22;12272;52.426;17.100;2023-03-01T13:09:19;7.40;69.50
24091;DHT22;12272;52.426;17.100;2023-03-01T13:19:27;8.90;64.80
24091;DHT22;12272;52.426;17.100;2023-03-01T13:24:42;9.20;75.30
24091;DHT22;12272;52.426;17.100;2023-03-01T13:29:53;9.10;83.70
24091;DHT22;12272;52.426;17.100;2023-03-01T13:45:38;9.40;62.60
24091;DHT22;12272;52.426;17.100;2023-03-01T13:51:13;9.30;69.40
24091;DHT22;12272;52.426;17.100;2023-03-01T13:56:20;8.80;63.10
24091;DHT22;12272;52.426;17.100;2023-03-01T14:01:28;8.80;77.80
24091;DHT22;12272;52.426;17.100;2023-03-01T14:06:33;9.90;69.40
24091;DHT22;12272;52.426;17.100;2023-03-01T14:22:37;9.60;66.30
24091;DHT22;12272;52.426;17.100;2023-03-01T14:27:43;10.50;77.20
24091;DHT22;12272;52.426;17.100;2023-03-01T14:33:01;9.90;56.50
24091;DHT22;12272;52.426;17.100;2023-03-01T14:38:03;10.00;82.30
24091;DHT22;12272;52.426;17.100;2023-03-01T14:43:17;10.50;63.40
24091;DHT22;12272;52.426;17.100;2023-03-01T14:48:23;10.40;64.60
24091;DHT22;12272;52.426;17.100;2023-03-01T14:53:28;10.00;63.90
24091;DHT22;12272;52.426;17.100;2023-03-01T14:58:38;10.20;70.20
24091;DHT22;12272;52.426;17.100;2023-03-01T15:03:43;9.80;65.90
24091;DHT22;12272;52.426;17.100;2023-03-01T15:08:48;10.60;77.10
24091;DHT22;12272;52.426;17.100;2023-03-01T15:13:52;11.00;57.60
24091;DHT22;12272;52.426;17.100;2023-03-01T15:19:06;9.90;63.00
24091;DHT22;12272;52.426;17.100;2023-03-01T15:29:24;10.70;65.00
24091;DHT22;12272;52.426;17.100;2023-03-01T15:34:36;11.00;67.60
24091;DHT22;12272;52.426;17.100;2023-03-01T15:39:42;10.50;57.40
24091;DHT22;12272;52.426;17.100;2023-03-01T15:44:47;10.00;56.30
24091;DHT22;12272;52.426;17.100;2023-03-01T15:49:52;9.70;58.30
24091;DHT22;12272;52.426;17.100;2023-03-01T15:55:00;9.20;65.90
24091;DHT22;12272;52.426;17.100;2023-03-01T16:00:04;9.40;73.50
24091;DHT22;12272;52.426;17.100;2023-03-01T16:10:21;9.40;66.70
24091;DHT22;12272;52.426;17.100;2023-03-01T16:15:29;9.30;70.10
24091;DHT22;12272;52.426;17.100;2023-03-01T16:20:34;8.20;63.60
24091;DHT22;12272;52.426;17.100;2023-03-01T16:25:37;7.20;70.20
24091;DHT22;12272;52.426;17.100;2023-03-01T16:30:40;6.30;80.40
24091;DHT22;12272;52.426;17.100;2023-03-01T16:35:42;5.50;87.40
24091;DHT22;12272;52.426;17.100;2023-03-01T16:40:51;4.90;92.40
24091;DHT22;12272;52.426;17.100;2023-03-01T16:45:54;4.40;95.90
24091;DHT22;12272;52.426;17.100;2023-03-01T16:51:00;4.10;98.70
24091;DHT22;12272;52.426;17.100;2023-03-01T16:56:06;3.90;99.90
24091;DHT22;12272;52.426;17.100;2023-03-01T17:06:16;3.40;99.90
24091;DHT22;12272;52.426;17.100;2023-03-01T17:11:20;3.20;99.90
24091;DHT22;12272;52.426;17.100;2023-03-01T17:16:22;3.00;99.90
24091;DHT22;12272;52.426;17.100;2023-03-01T17:21:25;2.70;99.90
24091;DHT22;12272;52.426;17.100;2023-03-01T17:26:28;2.50;99.90
24091;DHT22;12272;52.426;17.100;2023-03-01T17:31:32;2.40;99.90
24091;DHT22;12272;52.426;17.100;2023-03-01T17:36:35;2.20;99.90
24091;DHT22;12272;52.426;17.100;2023-03-01T17:46:48;2.10;99.90
24091;DHT22;12272;52.426;17.100;2023-03-01T17:51:51;2.00;99.90
24091;DHT22;12272;52.426;17.100;2023-03-01T17:56:54;1.90;99.90
24091;DHT22;12272;52.426;17.100;2023-03-01T18:01:57;1.90;99.90
24091;DHT22;12272;52.426;17.100;2023-03-01T18:07:02;1.50;99.90
24091;DHT22;12272;52.426;17.100;2023-03-01T18:12:05;1.30;99.90
24091;DHT22;12272;52.426;17.100;2023-03-01T18:17:08;1.30;99.90
24091;DHT22;12272;52.426;17.100;2023-03-01T18:22:13;1.20;99.90
24091;DHT22;12272;52.426;17.100;2023-03-01T18:27:17;1.50;99.90
24091;DHT22;12272;52.426;17.100;2023-03-01T18:32:19;1.70;99.90
24091;DHT22;12272;52.426;17.100;2023-03-01T18:37:23;1.80;99.90
24091;DHT22;12272;52.426;17.100;2023-03-01T18:42:26;1.60;99.90
24091;DHT22;12272;52.426;17.100;2023-03-01T18:47:28;1.30;99.90
24091;DHT22;12272;52.426;17.100;2023-03-01T18:57:33;0.80;99.90
24091;DHT22;12272;52.426;17.100;2023-03-01T19:02:36;0.60;99.90
24091;DHT22;12272;52.426;17.100;2023-03-01T19:07:39;0.50;99.90
24091;DHT22;12272;52.426;17.100;2023-03-01T19:12:41;0.50;99.90
24091;DHT22;12272;52.426;17.100;2023-03-01T19:17:44;0.40;99.90
24091;DHT22;12272;52.426;17.100;2023-03-01T19:22:47;0.30;99.90
24091;DHT22;12272;52.426;17.100;2023-03-01T19:27:49;0.40;99.90
24091;DHT22;12272;52.426;17.100;2023-03-01T19:32:52;0.40;99.90
24091;DHT22;12272;52.426;17.100;2023-03-01T19:37:55;0.20;99.90
24091;DHT22;12272;52.426;17.100;2023-03-01T19:42:57;0.10;99.90
24091;DHT22;12272;52.426;17.100;2023-03-01T19:48:00;0.00;99.90
24091;DHT22;12272;52.426;17.100;2023-03-01T19:53:03;-0.20;99.90
24091;DHT22;12272;52.426;17.100;2023-03-01T19:58:07;-0.10;99.90
24091;DHT22;12272;52.426;17.100;2023-03-01T20:03:12;-0.10;99.90
24091;DHT22;12272;52.426;17.100;2023-03-01T20:08:14;-0.10;99.90
24091;DHT22;12272;52.426;17.100;2023-03-01T20:13:17;-0.30;99.90
24091;DHT22;12272;52.426;17.100;2023-03-01T20:18:22;0.00;99.90
24091;DHT22;12272;52.426;17.100;2023-03-01T20:23:26;-1.00;99.90
24091;DHT22;12272;52.426;17.100;2023-03-01T20:28:28;-0.40;99.90
24091;DHT22;12272;52.426;17.100;2023-03-01T20:33:31;-0.20;99.90
24091;DHT22;12272;52.426;17.100;2023-03-01T20:38:36;-0.10;99.90
24091;DHT22;12272;52.426;17.100;2023-03-01T20:43:41;-0.10;99.90
24091;DHT22;12272;52.426;17.100;2023-03-01T20:48:44;-0.20;99.90
24091;DHT22;12272;52.426;17.100;2023-03-01T20:53:46;0.00;99.90
24091;DHT22;12272;52.426;17.100;2023-03-01T20:58:49;0.10;99.90
24091;DHT22;12272;52.426;17.100;2023-03-01T21:03:51;-0.20;99.90
24091;DHT22;12272;52.426;17.100;2023-03-01T21:08:55;-0.20;99.90
24091;DHT22;12272;52.426;17.100;2023-03-01T21:13:58;-0.20;99.90
24091;DHT22;12272;52.426;17.100;2023-03-01T21:19:01;-0.10;99.90
24091;DHT22;12272;52.426;17.100;2023-03-01T21:24:05;-0.10;99.90
24091;DHT22;12272;52.426;17.100;2023-03-01T21:29:11;-0.10;99.90
24091;DHT22;12272;52.426;17.100;2023-03-01T21:34:14;-0.10;99.90
24091;DHT22;12272;52.426;17.100;2023-03-01T21:39:16;-0.40;99.90
24091;DHT22;12272;52.426;17.100;2023-03-01T21:44:19;-0.50;99.90
24091;DHT22;12272;52.426;17.100;2023-03-01T21:49:22;-0.40;99.90
24091;DHT22;12272;52.426;17.100;2023-03-01T21:54:24;-0.40;99.90
24091;DHT22;12272;52.426;17.100;2023-03-01T21:59:27;-0.70;99.90
24091;DHT22;12272;52.426;17.100;2023-03-01T22:04:30;-1.00;99.90
24091;DHT22;12272;52.426;17.100;2023-03-01T22:09:33;-1.10;99.90
24091;DHT22;12272;52.426;17.100;2023-03-01T22:14:37;-0.80;99.90
24091;DHT22;12272;52.426;17.100;2023-03-01T22:19:39;-1.00;99.90
24091;DHT22;12272;52.426;17.100;2023-03-01T22:24:42;-0.80;99.90
24091;DHT22;12272;52.426;17.100;2023-03-01T22:29:45;-0.90;99.90
24091;DHT22;12272;52.426;17.100;2023-03-01T22:34:47;-1.00;99.90
24091;DHT22;12272;52.426;17.100;2023-03-01T22:39:50;-1.00;99.90
24091;DHT22;12272;52.426;17.100;2023-03-01T22:44:53;-1.00;99.90
24091;DHT22;12272;52.426;17.100;2023-03-01T22:49:55;-1.20;99.90
24091;DHT22;12272;52.426;17.100;2023-03-01T22:54:58;-1.20;99.90
24091;DHT22;12272;52.426;17.100;2023-03-01T23:00:04;-0.60;99.90
24091;DHT22;12272;52.426;17.100;2023-03-01T23:05:08;-0.90;99.90
24091;DHT22;12272;52.426;17.100;2023-03-01T23:10:11;-1.10;99.90
24091;DHT22;12272;52.426;17.100;2023-03-01T23:15:14;-1.20;99.90
24091;DHT22;12272;52.426;17.100;2023-03-01T23:20:17;-1.20;99.90
24091;DHT22;12272;52.426;17.100;2023-03-01T23:25:19;-1.20;99.90
24091;DHT22;12272;52.426;17.100;2023-03-01T23:30:22;-1.30;99.90
24091;DHT22;12272;52.426;17.100;2023-03-01T23:35:27;-1.40;99.90
24091;DHT22;12272;52.426;17.100;2023-03-01T23:40:30;-1.50;99.90
24091;DHT22;12272;52.426;17.100;2023-03-01T23:45:36;-1.70;99.90
24091;DHT22;12272;52.426;17.100;2023-03-01T23:50:44;-1.70;99.90
24091;DHT22;12272;52.426;17.100;2023-03-01T23:55:50;-1.60;99.90
